sensor_id;sensor_type;location;lat;lon;timestamp;temperature;humidity
27890;DHT22;15238;49.082;9.102;2023-07-29T00:01:36;17.90;99.90
27890;DHT22;15238;49.082;9.102;2023-07-29T00:03:36;17.90;99.90
27890;DHT22;15238;49.082;9.102;2023-07-29T00:05:37;17.90;99.90
27890;DHT22;15238;49.082;9.102;2023-07-29T00:07:38;17.90;99.90
27890;DHT22;15238;49.082;9.102;2023-07-29T00:09:38;17.90;99.90
27890;DHT22;15238;49.082;9.102;2023-07-29T00:11:39;17.90;99.90
27890;DHT22;15238;49.082;9.102;2023-07-29T00:13:39;17.90;99.90
27890;DHT22;15238;49.082;9.102;2023-07-29T00:15:40;17.90;99.90
27890;DHT22;15238;49.082;9.102;2023-07-29T00:17:40;17.90;99.90
27890;DHT22;15238;49.082;9.102;2023-07-29T00:19:41;17.90;99.90
27890;DHT22;15238;49.082;9.102;2023-07-29T00:21:41;17.90;99.90
27890;DHT22;15238;49.082;9.102;2023-07-29T00:23:43;17.90;99.90
27890;DHT22;15238;49.082;9.102;2023-07-29T00:25:43;17.90;99.90
27890;DHT22;15238;49.082;9.102;2023-07-29T00:27:44;17.90;99.90
27890;DHT22;15238;49.082;9.102;2023-07-29T00:29:44;17.90;99.90
27890;DHT22;15238;49.082;9.102;2023-07-29T00:31:45;17.90;99.90
27890;DHT22;15238;49.082;9.102;2023-07-29T00:33:45;17.90;99.90
27890;DHT22;15238;49.082;9.102;2023-07-29T00:35:46;17.90;99.90
27890;DHT22;15238;49.082;9.102;2023-07-29T00:37:46;17.80;99.90
27890;DHT22;15238;49.082;9.102;2023-07-29T00:39:47;17.80;99.90
27890;DHT22;15238;49.082;9.102;2023-07-29T00:41:48;17.80;99.90
27890;DHT22;15238;49.082;9.102;2023-07-29T00:43:48;17.80;99.90
27890;DHT22;15238;49.082;9.102;2023-07-29T00:45:49;17.80;99.90
27890;DHT22;15238;49.082;9.102;2023-07-29T00:47:50;17.80;99.90
27890;DHT22;15238;49.082;9.102;2023-07-29T00:49:51;17.70;99.90
27890;DHT22;15238;49.082;9.102;2023-07-29T00:51:52;17.80;99.90
27890;DHT22;15238;49.082;9.102;2023-07-29T00:53:52;17.80;99.90
27890;DHT22;15238;49.082;9.102;2023-07-29T00:55:53;17.80;99.90
27890;DHT22;15238;49.082;9.102;2023-07-29T00:57:54;17.80;99.90
27890;DHT22;15238;49.082;9.102;2023-07-29T00:59:55;17.80;99.90
27890;DHT22;15238;49.082;9.102;2023-07-29T01:01:56;17.70;99.90
27890;DHT22;15238;49.082;9.102;2023-07-29T01:03:57;17.80;99.90
27890;DHT22;15238;49.082;9.102;2023-07-29T01:08:31;17.70;99.90
27890;DHT22;15238;49.082;9.102;2023-07-29T01:13:37;17.80;99.90
27890;DHT22;15238;49.082;9.102;2023-07-29T01:16:04;17.80;99.90
27890;DHT22;15238;49.082;9.102;2023-07-29T01:18:12;17.80;99.90
27890;DHT22;15238;49.082;9.102;2023-07-29T01:20:16;17.80;99.90
27890;DHT22;15238;49.082;9.102;2023-07-29T01:22:21;17.80;99.90
27890;DHT22;15238;49.082;9.102;2023-07-29T01:24:22;17.80;99.90
27890;DHT22;15238;49.082;9.102;2023-07-29T01:26:22;17.80;99.90
27890;DHT22;15238;49.082;9.102;2023-07-29T01:28:24;17.80;99.90
27890;DHT22;15238;49.082;9.102;2023-07-29T01:30:31;17.80;99.90
27890;DHT22;15238;49.082;9.102;2023-07-29T01:34:44;17.80;99.90
27890;DHT22;15238;49.082;9.102;2023-07-29T01:36:46;17.80;99.90
27890;DHT22;15238;49.082;9.102;2023-07-29T01:38:48;17.80;99.90
27890;DHT22;15238;49.082;9.102;2023-07-29T01:40:50;17.80;99.90
27890;DHT22;15238;49.082;9.102;2023-07-29T01:42:51;17.80;99.90
27890;DHT22;15238;49.082;9.102;2023-07-29T01:44:52;17.80;99.90
27890;DHT22;15238;49.082;9.102;2023-07-29T01:46:52;17.80;99.90
27890;DHT22;15238;49.082;9.102;2023-07-29T01:48:55;17.80;99.90
27890;DHT22;15238;49.082;9.102;2023-07-29T01:50:55;17.80;99.90
27890;DHT22;15238;49.082;9.102;2023-07-29T01:52:56;17.80;99.90
27890;DHT22;15238;49.082;9.102;2023-07-29T01:54:56;17.90;99.90
27890;DHT22;15238;49.082;9.102;2023-07-29T01:56:57;17.80;99.90
27890;DHT22;15238;49.082;9.102;2023-07-29T01:58:57;17.80;99.90
27890;DHT22;15238;49.082;9.102;2023-07-29T02:00:58;17.80;99.90
27890;DHT22;15238;49.082;9.102;2023-07-29T02:02:58;17.80;99.90
27890;DHT22;15238;49.082;9.102;2023-07-29T02:04:59;17.80;99.90
27890;DHT22;15238;49.082;9.102;2023-07-29T02:06:59;17.80;99.90
27890;DHT22;15238;49.082;9.102;2023-07-29T02:09:00;17.80;99.90
27890;DHT22;15238;49.082;9.102;2023-07-29T02:11:00;17.80;99.90
27890;DHT22;15238;49.082;9.102;2023-07-29T02:13:02;17.80;99.90
27890;DHT22;15238;49.082;9.102;2023-07-29T02:15:03;17.80;99.90
27890;DHT22;15238;49.082;9.102;2023-07-29T02:17:04;17.80;99.90
27890;DHT22;15238;49.082;9.102;2023-07-29T02:19:05;17.80;99.90
27890;DHT22;15238;49.082;9.102;2023-07-29T02:21:05;17.80;99.90
27890;DHT22;15238;49.082;9.102;2023-07-29T02:23:06;17.80;99.90
27890;DHT22;15238;49.082;9.102;2023-07-29T02:25:07;17.80;99.90
27890;DHT22;15238;49.082;9.102;2023-07-29T02:27:07;17.80;99.90
27890;DHT22;15238;49.082;9.102;2023-07-29T02:29:08;17.80;99.90
27890;DHT22;15238;49.082;9.102;2023-07-29T02:31:29;17.80;99.90
27890;DHT22;15238;49.082;9.102;2023-07-29T02:33:29;17.80;99.90
27890;DHT22;15238;49.082;9.102;2023-07-29T02:35:30;17.80;99.90
27890;DHT22;15238;49.082;9.102;2023-07-29T02:37:30;17.80;99.90
27890;DHT22;15238;49.082;9.102;2023-07-29T02:39:31;17.80;99.90
27890;DHT22;15238;49.082;9.102;2023-07-29T02:41:32;17.80;99.90
27890;DHT22;15238;49.082;9.102;2023-07-29T02:43:32;17.80;99.90
27890;DHT22;15238;49.082;9.102;2023-07-29T02:45:33;17.80;99.90
27890;DHT22;15238;49.082;9.102;2023-07-29T02:47:33;17.80;99.90
27890;DHT22;15238;49.082;9.102;2023-07-29T02:49:34;17.80;99.90
27890;DHT22;15238;49.082;9.102;2023-07-29T02:51:34;17.80;99.90
27890;DHT22;15238;49.082;9.102;2023-07-29T02:53:35;17.80;99.90
27890;DHT22;15238;49.082;9.102;2023-07-29T02:55:40;17.80;99.90
27890;DHT22;15238;49.082;9.102;2023-07-29T02:57:41;17.80;99.90
27890;DHT22;15238;49.082;9.102;2023-07-29T02:59:41;17.80;99.90
27890;DHT22;15238;49.082;9.102;2023-07-29T03:01:42;17.70;99.90
27890;DHT22;15238;49.082;9.102;2023-07-29T03:03:43;17.80;99.90
27890;DHT22;15238;49.082;9.102;2023-07-29T03:05:43;17.80;99.90
27890;DHT22;15238;49.082;9.102;2023-07-29T03:07:44;17.70;99.90
27890;DHT22;15238;49.082;9.102;2023-07-29T03:09:45;17.70;99.90
27890;DHT22;15238;49.082;9.102;2023-07-29T03:11:46;17.70;99.90
27890;DHT22;15238;49.082;9.102;2023-07-29T03:13:46;17.70;99.90
27890;DHT22;15238;49.082;9.102;2023-07-29T03:15:47;17.70;99.90
27890;DHT22;15238;49.082;9.102;2023-07-29T03:17:47;17.70;99.90
27890;DHT22;15238;49.082;9.102;2023-07-29T03:19:48;17.70;99.90
27890;DHT22;15238;49.082;9.102;2023-07-29T03:21:49;17.70;99.90
27890;DHT22;15238;49.082;9.102;2023-07-29T03:23:50;17.70;99.90
27890;DHT22;15238;49.082;9.102;2023-07-29T03:25:50;17.70;99.90
27890;DHT22;15238;49.082;9.102;2023-07-29T03:27:56;17.70;99.90
27890;DHT22;15238;49.082;9.102;2023-07-29T03:29:57;17.70;99.90
27890;DHT22;15238;49.082;9.102;2023-07-29T03:31:57;17.70;99.90
27890;DHT22;15238;49.082;9.102;2023-07-29T03:33:58;17.70;99.90
27890;DHT22;15238;49.082;9.102;2023-07-29T03:35:58;17.70;99.90
27890;DHT22;15238;49.082;9.102;2023-07-29T03:37:59;17.70;99.90
27890;DHT22;15238;49.082;9.102;2023-07-29T03:40:00;17.70;99.90
27890;DHT22;15238;49.082;9.102;2023-07-29T03:42:00;17.70;99.90
27890;DHT22;15238;49.082;9.102;2023-07-29T03:44:00;17.60;99.90
27890;DHT22;15238;49.082;9.102;2023-07-29T03:46:01;17.70;99.90
27890;DHT22;15238;49.082;9.102;2023-07-29T03:48:02;17.60;99.90
27890;DHT22;15238;49.082;9.102;2023-07-29T03:50:03;17.60;99.90
27890;DHT22;15238;49.082;9.102;2023-07-29T03:52:05;17.60;99.90
27890;DHT22;15238;49.082;9.102;2023-07-29T03:54:06;17.60;99.90
27890;DHT22;15238;49.082;9.102;2023-07-29T03:56:07;17.60;99.90
27890;DHT22;15238;49.082;9.102;2023-07-29T03:58:08;17.60;99.90
27890;DHT22;15238;49.082;9.102;2023-07-29T04:00:08;17.60;99.90
27890;DHT22;15238;49.082;9.102;2023-07-29T04:02:09;17.60;99.90
27890;DHT22;15238;49.082;9.102;2023-07-29T04:04:09;17.60;99.90
27890;DHT22;15238;49.082;9.102;2023-07-29T04:06:10;17.60;99.90
27890;DHT22;15238;49.082;9.102;2023-07-29T04:08:11;17.60;99.90
27890;DHT22;15238;49.082;9.102;2023-07-29T04:10:11;17.60;99.90
27890;DHT22;15238;49.082;9.102;2023-07-29T04:12:12;17.70;99.90
27890;DHT22;15238;49.082;9.102;2023-07-29T04:14:12;17.60;99.90
27890;DHT22;15238;49.082;9.102;2023-07-29T04:16:13;17.70;99.90
27890;DHT22;15238;49.082;9.102;2023-07-29T04:18:13;17.70;99.90
27890;DHT22;15238;49.082;9.102;2023-07-29T04:20:14;17.70;99.90
27890;DHT22;15238;49.082;9.102;2023-07-29T04:22:15;17.70;99.90
27890;DHT22;15238;49.082;9.102;2023-07-29T04:24:16;17.70;99.90
27890;DHT22;15238;49.082;9.102;2023-07-29T04:26:16;17.70;99.90
27890;DHT22;15238;49.082;9.102;2023-07-29T04:28:17;17.70;99.90
27890;DHT22;15238;49.082;9.102;2023-07-29T04:30:18;17.70;99.90
27890;DHT22;15238;49.082;9.102;2023-07-29T04:32:18;17.70;99.90
27890;DHT22;15238;49.082;9.102;2023-07-29T04:34:19;17.70;99.90
27890;DHT22;15238;49.082;9.102;2023-07-29T04:36:20;17.70;99.90
27890;DHT22;15238;49.082;9.102;2023-07-29T04:38:20;17.70;99.90
27890;DHT22;15238;49.082;9.102;2023-07-29T04:40:21;17.70;99.90
27890;DHT22;15238;49.082;9.102;2023-07-29T04:42:23;17.80;99.90
27890;DHT22;15238;49.082;9.102;2023-07-29T04:44:23;17.80;99.90
27890;DHT22;15238;49.082;9.102;2023-07-29T04:46:24;17.80;99.90
27890;DHT22;15238;49.082;9.102;2023-07-29T04:48:24;17.70;99.90
27890;DHT22;15238;49.082;9.102;2023-07-29T04:50:25;17.70;99.90
27890;DHT22;15238;49.082;9.102;2023-07-29T04:52:25;17.70;99.90
27890;DHT22;15238;49.082;9.102;2023-07-29T04:54:26;17.70;99.90
27890;DHT22;15238;49.082;9.102;2023-07-29T04:56:26;17.60;99.90
27890;DHT22;15238;49.082;9.102;2023-07-29T04:58:27;17.60;99.90
27890;DHT22;15238;49.082;9.102;2023-07-29T05:00:29;17.60;99.90
27890;DHT22;15238;49.082;9.102;2023-07-29T05:02:29;17.70;99.90
27890;DHT22;15238;49.082;9.102;2023-07-29T05:04:30;17.70;99.90
27890;DHT22;15238;49.082;9.102;2023-07-29T05:06:30;17.60;99.90
27890;DHT22;15238;49.082;9.102;2023-07-29T05:08:31;17.60;99.90
27890;DHT22;15238;49.082;9.102;2023-07-29T05:10:31;17.60;99.90
27890;DHT22;15238;49.082;9.102;2023-07-29T05:12:32;17.70;99.90
27890;DHT22;15238;49.082;9.102;2023-07-29T05:14:33;17.60;99.90
27890;DHT22;15238;49.082;9.102;2023-07-29T05:16:33;17.70;99.90
27890;DHT22;15238;49.082;9.102;2023-07-29T05:18:34;17.70;99.90
27890;DHT22;15238;49.082;9.102;2023-07-29T05:20:34;17.70;99.90
27890;DHT22;15238;49.082;9.102;2023-07-29T05:22:35;17.70;99.90
27890;DHT22;15238;49.082;9.102;2023-07-29T05:24:35;17.80;99.90
27890;DHT22;15238;49.082;9.102;2023-07-29T05:26:36;17.80;99.90
27890;DHT22;15238;49.082;9.102;2023-07-29T05:28:36;17.90;99.90
27890;DHT22;15238;49.082;9.102;2023-07-29T05:30:37;17.90;99.90
27890;DHT22;15238;49.082;9.102;2023-07-29T05:32:39;17.90;99.90
27890;DHT22;15238;49.082;9.102;2023-07-29T05:34:39;17.90;99.90
27890;DHT22;15238;49.082;9.102;2023-07-29T05:36:40;18.00;99.90
27890;DHT22;15238;49.082;9.102;2023-07-29T05:38:41;18.00;99.90
27890;DHT22;15238;49.082;9.102;2023-07-29T05:40:41;18.10;99.90
27890;DHT22;15238;49.082;9.102;2023-07-29T05:42:42;18.10;99.90
27890;DHT22;15238;49.082;9.102;2023-07-29T05:44:42;18.10;99.90
27890;DHT22;15238;49.082;9.102;2023-07-29T05:46:43;18.20;99.90
27890;DHT22;15238;49.082;9.102;2023-07-29T05:48:44;18.20;99.90
27890;DHT22;15238;49.082;9.102;2023-07-29T05:50:44;18.30;99.90
27890;DHT22;15238;49.082;9.102;2023-07-29T05:52:45;18.30;99.90
27890;DHT22;15238;49.082;9.102;2023-07-29T05:54:45;18.30;99.90
27890;DHT22;15238;49.082;9.102;2023-07-29T05:56:46;18.30;99.90
27890;DHT22;15238;49.082;9.102;2023-07-29T05:58:46;18.30;99.90
27890;DHT22;15238;49.082;9.102;2023-07-29T06:00:47;18.40;99.90
27890;DHT22;15238;49.082;9.102;2023-07-29T06:02:47;18.40;99.90
27890;DHT22;15238;49.082;9.102;2023-07-29T06:04:48;18.40;99.90
27890;DHT22;15238;49.082;9.102;2023-07-29T06:06:48;18.50;99.90
27890;DHT22;15238;49.082;9.102;2023-07-29T06:08:50;18.50;99.90
27890;DHT22;15238;49.082;9.102;2023-07-29T06:10:50;18.60;99.90
27890;DHT22;15238;49.082;9.102;2023-07-29T06:12:51;18.60;99.90
27890;DHT22;15238;49.082;9.102;2023-07-29T06:14:52;18.70;99.90
27890;DHT22;15238;49.082;9.102;2023-07-29T06:16:52;18.80;99.90
27890;DHT22;15238;49.082;9.102;2023-07-29T06:18:53;18.80;99.90
27890;DHT22;15238;49.082;9.102;2023-07-29T06:20:54;18.90;99.90
27890;DHT22;15238;49.082;9.102;2023-07-29T06:22:54;18.90;99.90
27890;DHT22;15238;49.082;9.102;2023-07-29T06:24:55;19.00;99.90
27890;DHT22;15238;49.082;9.102;2023-07-29T06:26:55;19.00;99.90
27890;DHT22;15238;49.082;9.102;2023-07-29T06:28:56;19.00;99.90
27890;DHT22;15238;49.082;9.102;2023-07-29T06:30:56;19.10;99.90
27890;DHT22;15238;49.082;9.102;2023-07-29T06:32:57;19.20;99.90
27890;DHT22;15238;49.082;9.102;2023-07-29T06:34:58;19.30;99.90
27890;DHT22;15238;49.082;9.102;2023-07-29T06:36:58;19.40;99.90
27890;DHT22;15238;49.082;9.102;2023-07-29T06:38:59;19.50;99.90
27890;DHT22;15238;49.082;9.102;2023-07-29T06:40:59;19.50;99.90
27890;DHT22;15238;49.082;9.102;2023-07-29T06:43:00;19.60;99.90
27890;DHT22;15238;49.082;9.102;2023-07-29T06:45:00;19.60;99.90
27890;DHT22;15238;49.082;9.102;2023-07-29T06:47:01;19.60;99.90
27890;DHT22;15238;49.082;9.102;2023-07-29T06:49:02;19.60;99.90
27890;DHT22;15238;49.082;9.102;2023-07-29T06:51:02;19.70;99.90
27890;DHT22;15238;49.082;9.102;2023-07-29T06:53:03;19.60;99.90
27890;DHT22;15238;49.082;9.102;2023-07-29T06:55:04;19.50;99.90
27890;DHT22;15238;49.082;9.102;2023-07-29T06:57:05;19.50;99.90
27890;DHT22;15238;49.082;9.102;2023-07-29T06:59:05;19.50;99.90
27890;DHT22;15238;49.082;9.102;2023-07-29T07:01:06;19.50;99.90
27890;DHT22;15238;49.082;9.102;2023-07-29T07:03:07;19.50;99.90
27890;DHT22;15238;49.082;9.102;2023-07-29T07:05:07;19.60;99.90
27890;DHT22;15238;49.082;9.102;2023-07-29T07:07:08;19.60;99.90
27890;DHT22;15238;49.082;9.102;2023-07-29T07:09:08;19.60;99.90
27890;DHT22;15238;49.082;9.102;2023-07-29T07:11:09;19.60;99.90
27890;DHT22;15238;49.082;9.102;2023-07-29T07:13:09;19.50;99.90
27890;DHT22;15238;49.082;9.102;2023-07-29T07:15:10;19.60;99.90
27890;DHT22;15238;49.082;9.102;2023-07-29T07:17:11;19.50;99.90
27890;DHT22;15238;49.082;9.102;2023-07-29T07:19:11;19.50;99.90
27890;DHT22;15238;49.082;9.102;2023-07-29T07:21:12;19.50;99.90
27890;DHT22;15238;49.082;9.102;2023-07-29T07:23:12;19.40;99.90
27890;DHT22;15238;49.082;9.102;2023-07-29T07:25:13;19.40;99.90
27890;DHT22;15238;49.082;9.102;2023-07-29T07:27:14;19.40;99.90
27890;DHT22;15238;49.082;9.102;2023-07-29T08:35:21;21.70;99.90
27890;DHT22;15238;49.082;9.102;2023-07-29T08:37:22;21.50;99.90
27890;DHT22;15238;49.082;9.102;2023-07-29T08:41:39;21.40;99.90
27890;DHT22;15238;49.082;9.102;2023-07-29T08:43:50;21.40;99.90
27890;DHT22;15238;49.082;9.102;2023-07-29T08:45:52;21.40;99.90
27890;DHT22;15238;49.082;9.102;2023-07-29T08:47:55;21.50;99.90
27890;DHT22;15238;49.082;9.102;2023-07-29T08:49:59;21.60;99.90
27890;DHT22;15238;49.082;9.102;2023-07-29T08:52:01;21.80;99.90
27890;DHT22;15238;49.082;9.102;2023-07-29T08:54:02;21.90;99.90
27890;DHT22;15238;49.082;9.102;2023-07-29T08:56:04;22.10;99.90
27890;DHT22;15238;49.082;9.102;2023-07-29T08:58:05;22.20;99.90
27890;DHT22;15238;49.082;9.102;2023-07-29T09:00:07;22.20;99.90
27890;DHT22;15238;49.082;9.102;2023-07-29T09:02:07;22.10;99.90
27890;DHT22;15238;49.082;9.102;2023-07-29T09:04:09;22.10;99.90
27890;DHT22;15238;49.082;9.102;2023-07-29T09:06:09;22.00;99.90
27890;DHT22;15238;49.082;9.102;2023-07-29T09:08:10;22.00;99.90
27890;DHT22;15238;49.082;9.102;2023-07-29T09:10:13;22.10;99.90
27890;DHT22;15238;49.082;9.102;2023-07-29T09:12:14;22.10;99.90
27890;DHT22;15238;49.082;9.102;2023-07-29T09:14:14;22.10;99.90
27890;DHT22;15238;49.082;9.102;2023-07-29T09:16:15;22.10;99.90
27890;DHT22;15238;49.082;9.102;2023-07-29T09:18:19;22.20;99.90
27890;DHT22;15238;49.082;9.102;2023-07-29T09:20:27;22.10;99.90
27890;DHT22;15238;49.082;9.102;2023-07-29T09:22:28;22.10;99.90
27890;DHT22;15238;49.082;9.102;2023-07-29T09:24:28;21.90;99.90
27890;DHT22;15238;49.082;9.102;2023-07-29T09:26:32;21.80;99.90
27890;DHT22;15238;49.082;9.102;2023-07-29T09:28:35;21.70;99.90
27890;DHT22;15238;49.082;9.102;2023-07-29T09:30:37;21.60;99.90
27890;DHT22;15238;49.082;9.102;2023-07-29T09:32:39;21.60;99.90
27890;DHT22;15238;49.082;9.102;2023-07-29T09:34:41;21.40;99.90
27890;DHT22;15238;49.082;9.102;2023-07-29T09:36:42;21.30;99.90
27890;DHT22;15238;49.082;9.102;2023-07-29T09:38:44;21.20;99.90
27890;DHT22;15238;49.082;9.102;2023-07-29T09:40:45;21.10;99.90
27890;DHT22;15238;49.082;9.102;2023-07-29T09:42:50;21.10;99.90
27890;DHT22;15238;49.082;9.102;2023-07-29T09:44:51;20.90;99.90
27890;DHT22;15238;49.082;9.102;2023-07-29T09:46:51;20.80;99.90
27890;DHT22;15238;49.082;9.102;2023-07-29T09:48:54;20.80;99.90
27890;DHT22;15238;49.082;9.102;2023-07-29T09:50:57;20.70;99.90
27890;DHT22;15238;49.082;9.102;2023-07-29T09:52:57;20.70;99.90
27890;DHT22;15238;49.082;9.102;2023-07-29T09:55:03;20.50;99.90
27890;DHT22;15238;49.082;9.102;2023-07-29T09:57:04;20.50;99.90
27890;DHT22;15238;49.082;9.102;2023-07-29T09:59:07;20.40;99.90
27890;DHT22;15238;49.082;9.102;2023-07-29T10:01:09;20.30;99.90
27890;DHT22;15238;49.082;9.102;2023-07-29T10:03:09;20.20;99.90
27890;DHT22;15238;49.082;9.102;2023-07-29T10:05:10;20.30;99.90
27890;DHT22;15238;49.082;9.102;2023-07-29T10:07:11;20.20;99.90
27890;DHT22;15238;49.082;9.102;2023-07-29T10:09:12;20.40;99.90
27890;DHT22;15238;49.082;9.102;2023-07-29T10:11:13;20.50;99.90
27890;DHT22;15238;49.082;9.102;2023-07-29T10:13:14;20.60;99.90
27890;DHT22;15238;49.082;9.102;2023-07-29T10:15:15;20.70;99.90
27890;DHT22;15238;49.082;9.102;2023-07-29T10:17:16;20.90;99.90
27890;DHT22;15238;49.082;9.102;2023-07-29T10:19:17;21.10;99.90
27890;DHT22;15238;49.082;9.102;2023-07-29T10:21:21;21.30;99.90
27890;DHT22;15238;49.082;9.102;2023-07-29T10:23:24;21.60;99.90
27890;DHT22;15238;49.082;9.102;2023-07-29T10:25:39;21.70;99.90
27890;DHT22;15238;49.082;9.102;2023-07-29T10:28:26;22.00;99.90
27890;DHT22;15238;49.082;9.102;2023-07-29T10:30:12;22.20;99.90
27890;DHT22;15238;49.082;9.102;2023-07-29T10:32:13;22.50;99.90
27890;DHT22;15238;49.082;9.102;2023-07-29T10:34:15;22.60;99.90
27890;DHT22;15238;49.082;9.102;2023-07-29T10:36:15;22.90;99.90
27890;DHT22;15238;49.082;9.102;2023-07-29T10:38:17;23.10;99.90
27890;DHT22;15238;49.082;9.102;2023-07-29T10:40:18;23.30;99.90
27890;DHT22;15238;49.082;9.102;2023-07-29T10:42:20;23.10;99.90
27890;DHT22;15238;49.082;9.102;2023-07-29T10:46:39;23.60;99.90
27890;DHT22;15238;49.082;9.102;2023-07-29T10:48:41;23.60;99.90
27890;DHT22;15238;49.082;9.102;2023-07-29T10:50:42;23.40;99.90
27890;DHT22;15238;49.082;9.102;2023-07-29T10:52:42;23.20;99.90
27890;DHT22;15238;49.082;9.102;2023-07-29T10:54:47;23.30;99.90
27890;DHT22;15238;49.082;9.102;2023-07-29T10:56:48;23.50;99.90
27890;DHT22;15238;49.082;9.102;2023-07-29T10:58:49;23.50;99.90
27890;DHT22;15238;49.082;9.102;2023-07-29T11:00:50;23.80;99.90
27890;DHT22;15238;49.082;9.102;2023-07-29T11:03:00;24.10;99.90
27890;DHT22;15238;49.082;9.102;2023-07-29T11:05:16;24.40;99.90
27890;DHT22;15238;49.082;9.102;2023-07-29T11:11:43;24.30;99.90
27890;DHT22;15238;49.082;9.102;2023-07-29T11:13:44;24.30;99.90
27890;DHT22;15238;49.082;9.102;2023-07-29T11:15:46;24.20;99.90
27890;DHT22;15238;49.082;9.102;2023-07-29T11:17:51;24.20;99.90
27890;DHT22;15238;49.082;9.102;2023-07-29T11:19:52;24.20;99.90
27890;DHT22;15238;49.082;9.102;2023-07-29T11:21:54;24.10;99.90
27890;DHT22;15238;49.082;9.102;2023-07-29T11:23:54;24.10;99.90
27890;DHT22;15238;49.082;9.102;2023-07-29T11:25:55;24.20;99.90
27890;DHT22;15238;49.082;9.102;2023-07-29T11:27:58;24.30;99.90
27890;DHT22;15238;49.082;9.102;2023-07-29T11:30:04;24.20;99.90
27890;DHT22;15238;49.082;9.102;2023-07-29T11:32:11;24.40;99.90
27890;DHT22;15238;49.082;9.102;2023-07-29T11:34:12;24.60;99.90
27890;DHT22;15238;49.082;9.102;2023-07-29T11:36:18;24.80;99.90
27890;DHT22;15238;49.082;9.102;2023-07-29T11:38:21;24.80;99.90
27890;DHT22;15238;49.082;9.102;2023-07-29T11:40:22;24.70;99.90
27890;DHT22;15238;49.082;9.102;2023-07-29T11:42:24;24.70;99.90
27890;DHT22;15238;49.082;9.102;2023-07-29T11:44:27;24.90;99.90
27890;DHT22;15238;49.082;9.102;2023-07-29T11:46:28;25.00;99.90
27890;DHT22;15238;49.082;9.102;2023-07-29T11:48:33;25.20;99.90
27890;DHT22;15238;49.082;9.102;2023-07-29T11:50:35;25.30;99.90
27890;DHT22;15238;49.082;9.102;2023-07-29T11:52:37;25.30;99.90
27890;DHT22;15238;49.082;9.102;2023-07-29T11:54:38;25.20;99.90
27890;DHT22;15238;49.082;9.102;2023-07-29T11:56:39;25.20;99.90
27890;DHT22;15238;49.082;9.102;2023-07-29T11:58:40;25.10;99.90
27890;DHT22;15238;49.082;9.102;2023-07-29T12:00:41;25.10;99.90
27890;DHT22;15238;49.082;9.102;2023-07-29T12:02:42;25.10;99.90
27890;DHT22;15238;49.082;9.102;2023-07-29T12:04:47;25.20;99.90
27890;DHT22;15238;49.082;9.102;2023-07-29T12:06:48;25.10;99.90
27890;DHT22;15238;49.082;9.102;2023-07-29T12:08:48;25.20;99.90
27890;DHT22;15238;49.082;9.102;2023-07-29T12:10:49;25.30;99.90
27890;DHT22;15238;49.082;9.102;2023-07-29T12:12:50;25.30;99.90
27890;DHT22;15238;49.082;9.102;2023-07-29T12:14:53;25.30;99.90
27890;DHT22;15238;49.082;9.102;2023-07-29T12:16:54;25.40;99.90
27890;DHT22;15238;49.082;9.102;2023-07-29T12:18:55;25.40;99.90
27890;DHT22;15238;49.082;9.102;2023-07-29T12:20:56;25.30;99.90
27890;DHT22;15238;49.082;9.102;2023-07-29T12:22:57;25.50;99.90
27890;DHT22;15238;49.082;9.102;2023-07-29T12:24:59;25.60;99.90
27890;DHT22;15238;49.082;9.102;2023-07-29T12:26:59;25.80;99.90
27890;DHT22;15238;49.082;9.102;2023-07-29T12:29:14;26.00;99.90
27890;DHT22;15238;49.082;9.102;2023-07-29T12:31:15;26.10;99.90
27890;DHT22;15238;49.082;9.102;2023-07-29T12:33:32;25.90;99.90
27890;DHT22;15238;49.082;9.102;2023-07-29T12:35:36;25.90;99.90
27890;DHT22;15238;49.082;9.102;2023-07-29T12:37:37;26.00;99.90
27890;DHT22;15238;49.082;9.102;2023-07-29T12:39:42;26.10;99.90
27890;DHT22;15238;49.082;9.102;2023-07-29T12:41:42;26.20;99.90
27890;DHT22;15238;49.082;9.102;2023-07-29T12:43:43;26.20;99.90
27890;DHT22;15238;49.082;9.102;2023-07-29T12:45:44;26.00;99.90
27890;DHT22;15238;49.082;9.102;2023-07-29T12:47:44;25.70;99.90
27890;DHT22;15238;49.082;9.102;2023-07-29T12:49:45;25.70;99.90
27890;DHT22;15238;49.082;9.102;2023-07-29T12:51:46;25.70;99.90
27890;DHT22;15238;49.082;9.102;2023-07-29T12:53:46;25.70;99.90
27890;DHT22;15238;49.082;9.102;2023-07-29T12:55:47;25.90;99.90
27890;DHT22;15238;49.082;9.102;2023-07-29T12:57:47;25.90;99.90
27890;DHT22;15238;49.082;9.102;2023-07-29T12:59:48;26.10;99.90
27890;DHT22;15238;49.082;9.102;2023-07-29T13:01:48;26.30;99.90
27890;DHT22;15238;49.082;9.102;2023-07-29T13:03:49;26.40;99.90
27890;DHT22;15238;49.082;9.102;2023-07-29T13:05:49;26.20;99.90
27890;DHT22;15238;49.082;9.102;2023-07-29T13:07:50;26.30;99.90
27890;DHT22;15238;49.082;9.102;2023-07-29T13:09:50;26.40;99.90
27890;DHT22;15238;49.082;9.102;2023-07-29T13:11:51;26.40;99.90
27890;DHT22;15238;49.082;9.102;2023-07-29T13:13:51;26.30;99.90
27890;DHT22;15238;49.082;9.102;2023-07-29T13:15:52;26.40;99.90
27890;DHT22;15238;49.082;9.102;2023-07-29T13:17:53;26.30;99.90
27890;DHT22;15238;49.082;9.102;2023-07-29T13:19:53;26.40;99.90
27890;DHT22;15238;49.082;9.102;2023-07-29T13:21:54;26.30;99.90
27890;DHT22;15238;49.082;9.102;2023-07-29T13:23:54;26.40;99.90
27890;DHT22;15238;49.082;9.102;2023-07-29T13:25:56;26.30;99.90
27890;DHT22;15238;49.082;9.102;2023-07-29T13:27:56;26.00;99.90
27890;DHT22;15238;49.082;9.102;2023-07-29T13:29:57;26.00;99.90
27890;DHT22;15238;49.082;9.102;2023-07-29T13:31:57;25.80;99.90
27890;DHT22;15238;49.082;9.102;2023-07-29T13:33:58;25.80;99.90
27890;DHT22;15238;49.082;9.102;2023-07-29T13:35:58;26.00;99.90
27890;DHT22;15238;49.082;9.102;2023-07-29T13:38:02;26.10;99.90
27890;DHT22;15238;49.082;9.102;2023-07-29T13:40:03;26.20;99.90
27890;DHT22;15238;49.082;9.102;2023-07-29T13:42:03;26.20;99.90
27890;DHT22;15238;49.082;9.102;2023-07-29T13:44:04;26.40;99.90
27890;DHT22;15238;49.082;9.102;2023-07-29T13:46:04;26.30;99.90
27890;DHT22;15238;49.082;9.102;2023-07-29T13:48:05;26.40;99.90
27890;DHT22;15238;49.082;9.102;2023-07-29T13:50:06;26.20;99.90
27890;DHT22;15238;49.082;9.102;2023-07-29T13:52:10;26.00;99.90
27890;DHT22;15238;49.082;9.102;2023-07-29T13:54:10;26.00;99.90
27890;DHT22;15238;49.082;9.102;2023-07-29T13:56:11;25.90;99.90
27890;DHT22;15238;49.082;9.102;2023-07-29T13:58:11;25.80;99.90
27890;DHT22;15238;49.082;9.102;2023-07-29T14:00:12;25.80;99.90
27890;DHT22;15238;49.082;9.102;2023-07-29T14:02:13;25.90;99.90
27890;DHT22;15238;49.082;9.102;2023-07-29T14:04:13;26.00;99.90
27890;DHT22;15238;49.082;9.102;2023-07-29T14:06:14;26.00;99.90
27890;DHT22;15238;49.082;9.102;2023-07-29T14:08:14;26.00;99.90
27890;DHT22;15238;49.082;9.102;2023-07-29T14:10:15;26.10;99.90